Time;durP1;ratioP1;P1;durP2;ratioP2;P2;SDS_P1;SDS_P2;PMS_P1;PMS_P2;Temp;Humidity;BMP_temperature;BMP_pressure;BME280_temperature;BME280_humidity;BME280_pressure;Samples;Min_cycle;Max_cycle;Signal;HPM_P1;HPM_P2
2021/05/18 00:02:21;;;;;;;;;;;;;;;22.35;48.68;99719.63;5052935;28;779;-55
2021/05/18 00:04:47;;;;;;;;;;;;;;;22.48;48.28;99713.00;5037970;28;875;-55
2021/05/18 00:07:17;;;;;;;;;;;;;;;22.50;48.08;99719.00;5055794;28;797;-56
2021/05/18 00:12:27;;;;;;;;;;;;;;;21.92;49.02;99740.88;5055437;28;970;-48
2021/05/18 00:14:52;;;;;;;;;;;;;;;21.65;50.47;99728.38;5055754;28;732;-49
2021/05/18 00:17:18;;;;;;;;;;;;;;;21.95;49.65;99734.72;5053833;28;1906;-55
2021/05/18 00:19:43;;;;;;;;;;;;;;;22.29;48.71;99730.06;5055757;28;811;-54
2021/05/18 00:22:08;;;;;;;;;;;;;;;22.42;48.44;99733.72;5055544;28;997;-49
2021/05/18 00:24:34;;;;;;;;;;;;;;;22.62;47.78;99743.16;5053955;28;812;-50
2021/05/18 00:27:03;;;;;;;;;;;;;;;22.44;48.05;99750.00;5053620;28;911;-51
2021/05/18 00:29:28;;;;;;;;;;;;;;;22.06;49.22;99757.25;5037802;28;1092;-48
2021/05/18 00:31:54;;;;;;;;;;;;;;;22.02;48.62;99753.53;5055510;28;840;-51
2021/05/18 00:34:19;;;;;;;;;;;;;;;21.70;50.30;99745.59;5055757;28;775;-50
2021/05/18 00:36:45;;;;;;;;;;;;;;;21.94;49.57;99749.69;5054102;28;1107;-49
2021/05/18 00:39:10;;;;;;;;;;;;;;;22.24;48.93;99757.16;5037178;28;1910;-53
2021/05/18 00:41:35;;;;;;;;;;;;;;;22.56;47.97;99769.47;5055064;28;950;-51
2021/05/18 00:44:01;;;;;;;;;;;;;;;22.60;47.67;99775.94;5055631;28;807;-57
2021/05/18 00:46:27;;;;;;;;;;;;;;;22.06;49.23;99779.41;5045930;28;1115;-58
2021/05/18 00:48:58;;;;;;;;;;;;;;;21.58;50.11;99764.84;5039345;28;808;-55
2021/05/18 00:51:28;;;;;;;;;;;;;;;21.47;50.68;99771.84;5022102;28;1111;-56
2021/05/18 00:53:54;;;;;;;;;;;;;;;21.88;49.95;99767.63;5039515;28;819;-57
2021/05/18 00:59:20;;;;;;;;;;;;;;;22.52;48.31;99762.97;5037708;28;1918;-58
2021/05/18 01:01:45;;;;;;;;;;;;;;;22.59;48.00;99768.78;5020594;28;797;-58
2021/05/18 01:04:14;;;;;;;;;;;;;;;22.21;48.73;99770.50;5039124;28;853;-58
2021/05/18 01:06:41;;;;;;;;;;;;;;;22.00;49.32;99770.47;5039395;28;804;-55
2021/05/18 01:09:10;;;;;;;;;;;;;;;21.72;48.53;99772.91;5021300;28;1269;-56
2021/05/18 01:11:46;;;;;;;;;;;;;;;21.79;50.38;99766.88;5038722;28;966;-53
2021/05/18 01:14:16;;;;;;;;;;;;;;;22.08;49.37;99759.69;5037888;28;784;-53
2021/05/18 01:16:45;;;;;;;;;;;;;;;22.34;48.63;99767.84;5021161;28;1226;-57
2021/05/18 01:19:11;;;;;;;;;;;;;;;22.58;48.08;99756.09;5021542;28;1918;-52
2021/05/18 01:21:36;;;;;;;;;;;;;;;22.29;48.64;99759.72;5038965;28;756;-56
2021/05/18 01:24:02;;;;;;;;;;;;;;;22.00;49.56;99753.88;5038538;28;787;-52
2021/05/18 01:26:28;;;;;;;;;;;;;;;21.61;49.03;99741.25;5038433;28;942;-53
2021/05/18 01:28:54;;;;;;;;;;;;;;;21.74;50.58;99750.44;5037947;28;863;-55
2021/05/18 01:31:22;;;;;;;;;;;;;;;22.18;49.17;99754.56;5037964;28;961;-53
2021/05/18 01:33:48;;;;;;;;;;;;;;;22.48;48.26;99762.88;5021252;28;1345;-55
2021/05/18 01:36:18;;;;;;;;;;;;;;;22.69;47.81;99768.38;5039010;28;826;-55
2021/05/18 01:38:52;;;;;;;;;;;;;;;22.15;49.11;99777.41;5038460;28;1934;-56
2021/05/18 01:44:02;;;;;;;;;;;;;;;21.69;48.35;99762.53;5038246;28;820;-57
2021/05/18 01:46:29;;;;;;;;;;;;;;;21.92;50.08;99765.00;5020893;28;1433;-56
2021/05/18 01:48:58;;;;;;;;;;;;;;;22.34;48.58;99759.53;5020346;28;1226;-54
2021/05/18 01:51:28;;;;;;;;;;;;;;;22.49;48.15;99764.47;5020814;28;1152;-56
2021/05/18 01:53:54;;;;;;;;;;;;;;;22.25;48.88;99764.31;5020511;28;1178;-56
2021/05/18 01:56:46;;;;;;;;;;;;;;;22.16;48.71;99765.19;5037283;28;954;-56
2021/05/18 01:59:06;;;;;;;;;;;;;;;21.83;50.19;99760.31;5037776;28;1984;-56
2021/05/18 02:01:38;;;;;;;;;;;;;;;22.18;49.06;99785.03;5020202;28;1094;-56
2021/05/18 02:04:04;;;;;;;;;;;;;;;22.59;48.23;99785.41;5038312;28;803;-58
2021/05/18 02:06:29;;;;;;;;;;;;;;;22.48;48.41;99790.56;5020557;28;1225;-56
2021/05/18 02:09:04;;;;;;;;;;;;;;;22.30;48.78;99789.00;5020159;28;1371;-56
2021/05/18 02:11:35;;;;;;;;;;;;;;;22.03;47.94;99777.31;5036471;28;1329;-56
2021/05/18 02:14:05;;;;;;;;;;;;;;;21.88;49.35;99765.69;5038015;28;561;-57
2021/05/18 02:16:40;;;;;;;;;;;;;;;22.18;49.35;99782.25;5037714;28;867;-57
2021/05/18 02:27:05;;;;;;;;;;;;;;;21.97;48.51;99796.06;5019770;28;1300;-58
2021/05/18 02:29:31;;;;;;;;;;;;;;;21.73;48.71;99802.22;5019954;28;1230;-55
2021/05/18 02:31:57;;;;;;;;;;;;;;;21.94;50.24;99798.72;5020006;28;1187;-57
2021/05/18 02:34:48;;;;;;;;;;;;;;;22.42;48.69;99811.28;5038185;28;903;-57
2021/05/18 02:37:13;;;;;;;;;;;;;;;22.34;48.86;99812.16;5037612;28;795;-55
2021/05/18 02:39:43;;;;;;;;;;;;;;;22.28;49.02;99813.47;5037189;28;1977;-53
2021/05/18 02:42:09;;;;;;;;;;;;;;;21.77;49.15;99805.94;5024199;28;1265;-53
2021/05/18 02:49:52;;;;;;;;;;;;;;;21.78;49.42;99817.81;5037358;28;772;-54
2021/05/18 02:52:17;;;;;;;;;;;;;;;21.85;49.98;99818.94;5036799;28;772;-55
2021/05/18 02:54:49;;;;;;;;;;;;;;;22.05;49.64;99816.56;5036261;28;1153;-57
2021/05/18 02:57:18;;;;;;;;;;;;;;;22.31;49.13;99829.41;5036788;28;967;-58
2021/05/18 02:59:44;;;;;;;;;;;;;;;22.44;48.48;99825.63;5036589;28;1965;-58
2021/05/18 03:02:09;;;;;;;;;;;;;;;22.40;48.73;99832.97;5037010;28;752;-54
2021/05/18 03:04:35;;;;;;;;;;;;;;;22.61;48.15;99832.16;5036125;28;1145;-58
2021/05/18 03:07:01;;;;;;;;;;;;;;;21.70;50.53;99847.16;5051301;28;864;-56
2021/05/18 03:09:27;;;;;;;;;;;;;;;21.33;51.35;99850.28;5036954;28;894;-58
2021/05/18 03:11:53;;;;;;;;;;;;;;;21.48;50.65;99865.56;5034734;28;1250;-58
2021/05/18 03:14:19;;;;;;;;;;;;;;;21.56;49.84;99861.19;5036387;28;862;-57
2021/05/18 03:16:45;;;;;;;;;;;;;;;21.91;48.81;99863.00;5037229;28;752;-58
2021/05/18 03:19:11;;;;;;;;;;;;;;;21.85;49.05;99863.22;5036622;28;1917;-56
2021/05/18 03:21:37;;;;;;;;;;;;;;;21.86;49.38;99864.81;5051971;28;839;-54
2021/05/18 03:24:03;;;;;;;;;;;;;;;21.96;49.77;99879.44;5036835;28;859;-58
2021/05/18 03:26:29;;;;;;;;;;;;;;;22.03;49.67;99875.03;5036644;28;943;-57
2021/05/18 03:28:58;;;;;;;;;;;;;;;22.07;49.43;99864.06;5036602;28;767;-58
2021/05/18 03:36:52;;;;;;;;;;;;;;;22.39;48.14;99886.75;5049354;28;851;-51
2021/05/18 03:39:17;;;;;;;;;;;;;;;22.17;48.84;99901.66;5047995;28;2037;-50
2021/05/18 03:41:55;;;;;;;;;;;;;;;22.23;48.76;99892.00;5055631;28;1115;-54
2021/05/18 03:58:33;;;;;;;;;;;;;;;22.38;48.50;99888.72;5037516;28;1099;-54
2021/05/18 04:03:18;;;;;;;;;;;;;;;21.91;49.36;99899.81;5035865;28;823;-56
2021/05/18 04:16:53;;;;;;;;;;;;;;;22.29;48.56;99910.06;4994503;28;824;-56
2021/05/18 04:19:22;;;;;;;;;;;;;;;22.47;48.03;99904.44;5009410;28;1977;-50
2021/05/18 04:22:05;;;;;;;;;;;;;;;22.52;47.87;99913.38;5019883;28;834;-55
2021/05/18 04:51:33;;;;;;;;;;;;;;;22.22;48.40;99905.03;5059112;28;714;-55
2021/05/18 04:54:46;;;;;;;;;;;;;;;21.73;49.83;99904.59;5059418;28;752;-53
2021/05/18 04:59:51;;;;;;;;;;;;;;;21.71;49.99;99906.84;5059156;28;1913;-56
2021/05/18 05:07:35;;;;;;;;;;;;;;;22.39;48.05;99936.59;5058775;28;820;-54
2021/05/18 05:10:01;;;;;;;;;;;;;;;22.50;47.81;99931.50;5059235;28;835;-55
2021/05/18 05:14:52;;;;;;;;;;;;;;;22.38;47.85;99934.97;5059235;28;779;-55
2021/05/18 05:17:17;;;;;;;;;;;;;;;22.04;48.35;99937.53;5059230;28;768;-56
2021/05/18 05:19:43;;;;;;;;;;;;;;;21.82;48.27;99930.25;5058736;28;1919;-57
2021/05/18 05:22:08;;;;;;;;;;;;;;;21.78;47.96;99928.50;5058543;28;794;-55
2021/05/18 05:24:34;;;;;;;;;;;;;;;21.68;47.65;99902.78;5059019;28;751;-52
2021/05/18 05:26:59;;;;;;;;;;;;;;;21.64;48.23;99895.50;5058075;28;942;-55
2021/05/18 05:29:25;;;;;;;;;;;;;;;21.86;48.22;99903.56;5058828;28;823;-49
2021/05/18 05:31:51;;;;;;;;;;;;;;;22.11;48.58;99901.03;5058460;28;799;-55
2021/05/18 05:34:18;;;;;;;;;;;;;;;21.96;49.42;99896.84;5058523;28;763;-53
2021/05/18 05:36:44;;;;;;;;;;;;;;;22.07;49.03;99891.75;5058723;28;759;-53
2021/05/18 05:39:13;;;;;;;;;;;;;;;22.16;48.61;99887.00;5039418;28;1917;-55
2021/05/18 05:41:39;;;;;;;;;;;;;;;22.13;48.89;99889.63;5057844;28;986;-54
2021/05/18 05:44:04;;;;;;;;;;;;;;;22.21;48.52;99891.53;5058470;28;799;-52
2021/05/18 05:46:30;;;;;;;;;;;;;;;22.28;48.56;99891.03;5057021;28;875;-57
2021/05/18 05:48:56;;;;;;;;;;;;;;;22.41;47.88;99878.09;5057972;28;799;-49
2021/05/18 05:51:22;;;;;;;;;;;;;;;22.49;47.75;99894.66;5058550;28;804;-48
2021/05/18 05:53:47;;;;;;;;;;;;;;;22.48;47.95;99908.84;5039517;28;907;-50
2021/05/18 05:56:13;;;;;;;;;;;;;;;22.50;47.74;99899.06;5057530;28;930;-53
2021/05/18 05:58:38;;;;;;;;;;;;;;;22.28;48.33;99893.78;5057536;28;1917;-54
2021/05/18 06:01:04;;;;;;;;;;;;;;;21.71;49.81;99901.31;5058505;28;871;-50
2021/05/18 06:03:30;;;;;;;;;;;;;;;21.48;49.77;99904.28;5057700;28;784;-55
2021/05/18 06:05:55;;;;;;;;;;;;;;;21.62;50.18;99900.56;5039993;28;794;-56
2021/05/18 06:08:21;;;;;;;;;;;;;;;21.97;49.28;99908.75;5057930;28;755;-56
2021/05/18 06:10:47;;;;;;;;;;;;;;;22.34;48.14;99906.31;5058368;28;807;-57
2021/05/18 06:29:50;;;;;;;;;;;;;;;21.89;48.55;99902.09;5057646;28;1978;-54
2021/05/18 06:49:07;;;;;;;;;;;;;;;22.30;47.90;99911.69;4972357;28;1223;-57
2021/05/18 06:51:33;;;;;;;;;;;;;;;21.92;48.86;99917.22;5011836;28;983;-57
2021/05/18 06:53:58;;;;;;;;;;;;;;;21.96;48.05;99907.91;5036811;28;1213;-58
2021/05/18 06:56:33;;;;;;;;;;;;;;;21.73;48.92;99906.53;5036410;28;924;-58
2021/05/18 07:01:26;;;;;;;;;;;;;;;22.41;47.54;99897.50;5036906;28;804;-59
2021/05/18 07:03:54;;;;;;;;;;;;;;;22.20;47.71;99896.28;5035694;28;1073;-58
2021/05/18 07:09:04;;;;;;;;;;;;;;;21.80;48.23;99888.28;5037095;28;773;-58
2021/05/18 07:11:30;;;;;;;;;;;;;;;21.80;48.74;99884.72;5035714;28;986;-54
2021/05/18 07:13:55;;;;;;;;;;;;;;;22.14;48.13;99897.59;5037330;28;759;-57
2021/05/18 07:16:20;;;;;;;;;;;;;;;22.34;47.60;99884.16;5036640;28;743;-54
2021/05/18 07:18:46;;;;;;;;;;;;;;;22.32;47.54;99891.97;5034328;28;1934;-57
2021/05/18 07:21:11;;;;;;;;;;;;;;;22.04;48.01;99886.91;5036623;28;775;-56
2021/05/18 07:23:37;;;;;;;;;;;;;;;21.94;47.78;99885.31;5037204;28;827;-57
2021/05/18 07:26:03;;;;;;;;;;;;;;;21.79;47.35;99885.84;5035750;28;752;-55
2021/05/18 07:28:31;;;;;;;;;;;;;;;21.83;48.61;99879.31;5036106;28;947;-58
2021/05/18 07:30:57;;;;;;;;;;;;;;;22.24;47.51;99890.06;5036514;28;824;-56
2021/05/18 07:33:23;;;;;;;;;;;;;;;22.48;46.96;99889.47;5035670;28;837;-58
2021/05/18 07:35:53;;;;;;;;;;;;;;;22.36;47.08;99881.88;5036083;28;814;-58
2021/05/18 07:38:18;;;;;;;;;;;;;;;22.17;47.56;99880.31;5035199;28;1910;-58
2021/05/18 07:40:44;;;;;;;;;;;;;;;22.03;47.30;99880.56;5035604;28;867;-57
2021/05/18 07:43:13;;;;;;;;;;;;;;;21.68;48.70;99890.94;5035132;28;835;-57
2021/05/18 07:45:38;;;;;;;;;;;;;;;22.01;47.97;99890.34;5036000;28;868;-58
2021/05/18 08:07:08;;;;;;;;;;;;;;;22.27;47.02;99914.31;5035053;28;840;-58
2021/05/18 08:09:39;;;;;;;;;;;;;;;22.39;46.83;99920.00;5034686;28;864;-58
2021/05/18 08:12:05;;;;;;;;;;;;;;;22.43;46.59;99914.56;5034561;28;878;-59
2021/05/18 08:14:32;;;;;;;;;;;;;;;22.41;46.67;99906.59;5035121;28;861;-57
2021/05/18 10:23:28;;;;;;;;;;;;;;;22.41;45.56;99905.81;5008897;28;1115;-58
2021/05/18 10:35:51;;;;;;;;;;;;;;;21.66;47.11;99882.16;5036709;28;1011;-58
2021/05/18 10:38:27;;;;;;;;;;;;;;;21.47;47.37;99893.56;5036279;28;1987;-59
2021/05/18 10:41:09;;;;;;;;;;;;;;;21.17;48.53;99883.19;5036456;28;821;-59
2021/05/18 10:43:34;;;;;;;;;;;;;;;21.92;46.73;99889.53;5035756;28;924;-56
2021/05/18 10:46:02;;;;;;;;;;;;;;;22.35;45.72;99885.78;5034974;28;1123;-58
2021/05/18 10:48:52;;;;;;;;;;;;;;;22.21;45.73;99895.09;5036574;28;888;-61
2021/05/18 10:51:27;;;;;;;;;;;;;;;22.25;45.58;99880.63;5036609;28;845;-56
2021/05/18 10:54:04;;;;;;;;;;;;;;;21.92;46.12;99892.31;5036028;28;857;-58
2021/05/18 10:56:30;;;;;;;;;;;;;;;21.74;45.95;99878.56;5035742;28;829;-58
2021/05/18 10:58:55;;;;;;;;;;;;;;;22.11;46.19;99898.25;5034920;28;1910;-57
2021/05/18 11:01:21;;;;;;;;;;;;;;;22.49;45.19;99886.34;5035985;28;880;-58
2021/05/18 11:03:46;;;;;;;;;;;;;;;22.32;45.51;99892.78;5036296;28;888;-58
2021/05/18 11:06:12;;;;;;;;;;;;;;;21.92;46.39;99890.34;5036580;28;829;-59
2021/05/18 11:08:37;;;;;;;;;;;;;;;21.56;46.85;99883.31;5035973;28;865;-59
2021/05/18 11:11:04;;;;;;;;;;;;;;;21.43;47.57;99875.97;5034610;28;825;-59
2021/05/18 11:13:30;;;;;;;;;;;;;;;21.99;46.01;99879.59;5036265;28;930;-58
2021/05/18 11:15:56;;;;;;;;;;;;;;;22.03;46.04;99876.97;5034423;28;817;-58
2021/05/18 11:18:28;;;;;;;;;;;;;;;22.17;45.57;99873.97;5035785;28;1980;-58
2021/05/18 11:21:06;;;;;;;;;;;;;;;22.30;45.36;99877.63;5035603;28;857;-59
2021/05/18 11:23:32;;;;;;;;;;;;;;;22.37;45.10;99877.94;5035679;28;932;-59
2021/05/18 11:26:07;;;;;;;;;;;;;;;22.31;45.00;99859.88;5035639;28;821;-58
2021/05/18 11:28:43;;;;;;;;;;;;;;;22.41;44.80;99862.28;5035611;28;1032;-58
2021/05/18 11:31:12;;;;;;;;;;;;;;;22.41;44.75;99867.03;5034093;28;1111;-58
2021/05/18 11:33:42;;;;;;;;;;;;;;;22.42;44.88;99863.91;5036175;28;888;-57
2021/05/18 11:36:09;;;;;;;;;;;;;;;22.39;44.76;99854.31;5035884;28;872;-60
2021/05/18 11:38:35;;;;;;;;;;;;;;;22.35;44.82;99869.19;5035231;28;1963;-58
2021/05/18 11:41:01;;;;;;;;;;;;;;;22.50;44.49;99846.44;5035614;28;893;-57
2021/05/18 11:43:27;;;;;;;;;;;;;;;22.51;44.31;99852.78;5034688;28;994;-59
2021/05/18 11:46:01;;;;;;;;;;;;;;;22.51;44.46;99866.63;5016956;28;840;-57
2021/05/18 11:48:26;;;;;;;;;;;;;;;22.24;45.05;99867.91;5035758;28;833;-58
2021/05/18 11:51:08;;;;;;;;;;;;;;;21.77;46.26;99861.28;5035182;28;822;-57
2021/05/18 11:53:33;;;;;;;;;;;;;;;21.62;46.20;99864.59;5034189;28;1016;-58
2021/05/18 11:55:59;;;;;;;;;;;;;;;21.34;47.35;99874.03;5035488;28;813;-58
2021/05/18 11:58:25;;;;;;;;;;;;;;;21.85;45.77;99877.03;5035007;28;1918;-56
2021/05/18 12:00:51;;;;;;;;;;;;;;;22.34;44.77;99884.16;5034726;28;853;-57
2021/05/18 12:03:16;;;;;;;;;;;;;;;22.56;44.25;99891.38;5035648;28;876;-57
2021/05/18 12:05:55;;;;;;;;;;;;;;;22.15;45.17;99871.53;5017160;28;943;-58
2021/05/18 12:08:38;;;;;;;;;;;;;;;22.09;44.98;99870.09;5034989;28;847;-59
2021/05/18 12:11:13;;;;;;;;;;;;;;;21.83;45.16;99865.47;5035214;28;950;-58
2021/05/18 12:13:39;;;;;;;;;;;;;;;22.02;45.43;99867.03;5035130;28;851;-57
2021/05/18 12:16:05;;;;;;;;;;;;;;;22.41;44.55;99867.03;5035175;28;891;-58
2021/05/18 12:18:34;;;;;;;;;;;;;;;22.51;44.22;99867.44;5035342;28;1968;-59
2021/05/18 12:21:00;;;;;;;;;;;;;;;22.02;45.15;99878.94;5035367;28;855;-59
2021/05/18 12:23:26;;;;;;;;;;;;;;;21.98;45.17;99872.44;5034595;28;880;-58
2021/05/18 12:25:51;;;;;;;;;;;;;;;21.66;45.34;99865.56;5035457;28;860;-58
2021/05/18 12:28:19;;;;;;;;;;;;;;;22.01;45.25;99865.41;5034754;28;1142;-59
2021/05/18 12:30:44;;;;;;;;;;;;;;;22.37;44.26;99861.34;5034438;28;857;-53
2021/05/18 12:33:10;;;;;;;;;;;;;;;22.38;44.12;99865.72;5034819;28;865;-57
2021/05/18 12:35:35;;;;;;;;;;;;;;;22.07;44.86;99855.78;5035122;28;817;-57
2021/05/18 12:38:11;;;;;;;;;;;;;;;21.98;45.22;99860.53;5016928;28;1980;-57
2021/05/18 12:40:37;;;;;;;;;;;;;;;21.77;45.70;99857.69;5035562;28;963;-54
2021/05/18 12:43:12;;;;;;;;;;;;;;;22.13;44.85;99840.63;5039741;28;955;-58
2021/05/18 12:45:38;;;;;;;;;;;;;;;22.58;43.98;99850.31;5039653;28;748;-53
2021/05/18 12:48:04;;;;;;;;;;;;;;;22.18;44.79;99857.00;5039920;28;803;-55
2021/05/18 12:50:40;;;;;;;;;;;;;;;22.14;44.65;99855.25;5054825;28;895;-58
2021/05/18 12:53:06;;;;;;;;;;;;;;;21.52;45.60;99858.25;5039411;28;827;-57
2021/05/18 12:55:32;;;;;;;;;;;;;;;21.90;45.50;99859.44;5039612;28;788;-57
2021/05/18 12:57:58;;;;;;;;;;;;;;;22.27;44.50;99867.22;5039297;28;1964;-57
2021/05/18 13:00:25;;;;;;;;;;;;;;;22.43;43.84;99854.47;5039094;28;552;-55
2021/05/18 13:02:52;;;;;;;;;;;;;;;22.08;44.72;99859.34;5039659;28;740;-56
2021/05/18 13:05:28;;;;;;;;;;;;;;;21.95;44.88;99861.19;5039459;28;743;-57
2021/05/18 13:08:28;;;;;;;;;;;;;;;21.66;45.50;99871.09;5039495;28;767;-55
2021/05/18 13:13:28;;;;;;;;;;;;;;;22.47;43.72;99869.28;5038319;28;1087;-55
2021/05/18 13:16:19;;;;;;;;;;;;;;;22.14;44.43;99850.53;5039356;28;811;-55
2021/05/18 13:18:58;;;;;;;;;;;;;;;21.95;44.75;99848.19;5038700;28;1988;-56
2021/05/18 13:21:28;;;;;;;;;;;;;;;21.64;45.30;99849.28;5038696;28;847;-56
2021/05/18 13:26:24;;;;;;;;;;;;;;;22.09;44.51;99852.66;5054249;28;903;-54
2021/05/18 13:26:42;;;;;;;;;;;;;;;22.40;43.86;99863.44;5038320;28;943;-56
2021/05/18 13:29:20;;;;;;;;;;;;;;;22.06;44.17;99856.91;5038492;28;795;-57
2021/05/18 13:31:46;;;;;;;;;;;;;;;21.47;45.75;99854.81;5039127;28;815;-55
2021/05/18 13:34:12;;;;;;;;;;;;;;;21.16;46.20;99862.19;5038791;28;825;-53
2021/05/18 13:36:37;;;;;;;;;;;;;;;21.62;45.25;99856.28;5038753;28;812;-58
2021/05/18 13:39:10;;;;;;;;;;;;;;;21.83;44.87;99857.19;5048244;28;1914;-55
2021/05/18 13:41:36;;;;;;;;;;;;;;;22.00;44.50;99870.13;5058154;28;997;-57
2021/05/18 13:44:02;;;;;;;;;;;;;;;22.15;44.00;99888.16;5058521;28;744;-54
2021/05/18 13:46:27;;;;;;;;;;;;;;;22.25;43.74;99861.22;5058922;28;879;-56
2021/05/18 13:48:53;;;;;;;;;;;;;;;22.28;43.77;99874.41;5058463;28;831;-55
2021/05/18 13:51:18;;;;;;;;;;;;;;;22.34;43.66;99881.41;5058358;28;815;-59
2021/05/18 13:53:44;;;;;;;;;;;;;;;22.30;43.55;99880.41;5058486;28;799;-52
2021/05/18 13:56:10;;;;;;;;;;;;;;;22.39;43.29;99875.66;5058216;28;938;-56
2021/05/18 13:58:36;;;;;;;;;;;;;;;22.30;43.62;99872.09;5058280;28;1906;-55
2021/05/18 14:01:05;;;;;;;;;;;;;;;22.37;43.26;99884.31;5058757;28;831;-53
2021/05/18 14:03:30;;;;;;;;;;;;;;;22.38;43.31;99876.81;5058001;28;756;-57
2021/05/18 14:05:55;;;;;;;;;;;;;;;22.31;43.64;99885.59;5058482;28;803;-57
2021/05/18 14:08:23;;;;;;;;;;;;;;;22.44;43.37;99883.78;5058254;28;863;-54
2021/05/18 14:10:49;;;;;;;;;;;;;;;22.42;43.43;99891.63;5058108;28;768;-53
2021/05/18 14:13:15;;;;;;;;;;;;;;;22.36;43.45;99879.13;5057721;28;989;-58
2021/05/18 14:15:42;;;;;;;;;;;;;;;22.50;43.14;99892.72;5058019;28;772;-56
2021/05/18 14:18:08;;;;;;;;;;;;;;;22.54;42.72;99894.47;5057970;28;1913;-56
2021/05/18 14:20:33;;;;;;;;;;;;;;;22.46;42.91;99894.53;5056496;28;839;-54
2021/05/18 14:22:59;;;;;;;;;;;;;;;22.51;42.87;99895.16;5058173;28;844;-57
2021/05/18 14:25:24;;;;;;;;;;;;;;;22.38;43.20;99896.19;5057786;28;800;-56
2021/05/18 14:27:49;;;;;;;;;;;;;;;22.37;43.35;99897.34;5057321;28;955;-57
2021/05/18 14:30:15;;;;;;;;;;;;;;;22.32;43.31;99905.81;5057655;28;792;-57
2021/05/18 14:32:41;;;;;;;;;;;;;;;22.52;43.04;99901.50;5038860;28;998;-48
2021/05/18 14:35:07;;;;;;;;;;;;;;;22.46;42.95;99894.53;5037690;28;837;-52
2021/05/18 14:37:33;;;;;;;;;;;;;;;22.22;43.59;99895.94;5037418;28;772;-55
2021/05/18 14:45:14;;;;;;;;;;;;;;;21.55;45.15;99891.94;5037523;28;764;-58
2021/05/18 14:48:07;;;;;;;;;;;;;;;22.00;44.01;99891.47;5037518;28;787;-57
2021/05/18 14:54:01;;;;;;;;;;;;;;;22.22;43.48;99898.72;5037332;28;792;-58
2021/05/18 14:55:54;;;;;;;;;;;;;;;22.19;43.49;99899.38;5023874;28;1319;-58
2021/05/18 14:58:20;;;;;;;;;;;;;;;22.27;43.31;99895.72;5035414;28;1972;-59
2021/05/18 15:00:46;;;;;;;;;;;;;;;22.17;43.46;99908.00;5036048;28;869;-59
2021/05/18 15:03:11;;;;;;;;;;;;;;;22.24;43.30;99896.41;5036812;28;752;-58
2021/05/18 15:05:37;;;;;;;;;;;;;;;22.31;43.35;99885.59;5019269;28;955;-59
2021/05/18 15:08:02;;;;;;;;;;;;;;;22.41;42.99;99889.97;5037104;28;792;-58
2021/05/18 15:10:28;;;;;;;;;;;;;;;22.31;43.28;99895.88;5037087;28;557;-58
2021/05/18 15:12:56;;;;;;;;;;;;;;;22.36;43.10;99898.50;5036432;28;951;-52
2021/05/18 15:15:22;;;;;;;;;;;;;;;22.45;42.92;99902.03;5036892;28;768;-58
2021/05/18 15:17:48;;;;;;;;;;;;;;;22.36;43.12;99898.50;5037102;28;748;-59
2021/05/18 15:20:13;;;;;;;;;;;;;;;22.28;43.15;99899.31;5036739;28;1972;-59
2021/05/18 15:22:39;;;;;;;;;;;;;;;22.26;43.31;99896.91;5034547;28;1267;-58
2021/05/18 15:25:05;;;;;;;;;;;;;;;22.22;43.14;99902.28;5019150;28;825;-59
2021/05/18 15:27:30;;;;;;;;;;;;;;;22.36;43.09;99895.72;5037158;28;939;-59
2021/05/18 15:29:56;;;;;;;;;;;;;;;22.41;42.96;99892.75;5036588;28;764;-58
2021/05/18 15:32:21;;;;;;;;;;;;;;;22.38;43.07;99893.44;5034734;28;931;-59
2021/05/18 15:34:47;;;;;;;;;;;;;;;22.47;42.62;99888.66;5035683;28;903;-58
2021/05/18 15:37:13;;;;;;;;;;;;;;;22.47;42.83;99888.66;5036408;28;764;-59
2021/05/18 15:39:39;;;;;;;;;;;;;;;21.81;44.00;99895.44;5034616;28;1989;-56
2021/05/18 15:42:04;;;;;;;;;;;;;;;21.58;44.93;99897.63;5036562;28;950;-58
2021/05/18 15:44:30;;;;;;;;;;;;;;;21.24;45.78;99903.97;5037088;28;772;-58
2021/05/18 15:46:55;;;;;;;;;;;;;;;21.69;44.42;99912.72;5036651;28;788;-59
2021/05/18 15:49:22;;;;;;;;;;;;;;;22.18;43.61;99912.41;5035480;28;985;-51
2021/05/18 15:51:47;;;;;;;;;;;;;;;22.60;42.53;99919.22;5036218;28;848;-56
2021/05/18 15:54:13;;;;;;;;;;;;;;;22.18;43.32;99908.81;5035836;28;808;-59
2021/05/18 15:56:38;;;;;;;;;;;;;;;22.15;43.78;99920.56;5035840;28;979;-58
2021/05/18 15:59:04;;;;;;;;;;;;;;;21.96;43.92;99923.72;5018419;28;1979;-46
2021/05/18 16:01:29;;;;;;;;;;;;;;;21.54;45.04;99913.25;5036852;28;772;-60
2021/05/18 16:03:55;;;;;;;;;;;;;;;22.15;43.62;99917.81;5034548;28;820;-57
2021/05/18 16:06:22;;;;;;;;;;;;;;;22.54;42.72;99918.63;5036319;28;760;-56
2021/05/18 16:11:13;;;;;;;;;;;;;;;22.09;43.75;99931.03;5035889;28;930;-59
2021/05/18 16:13:38;;;;;;;;;;;;;;;21.86;43.93;99922.94;5016587;28;768;-53
2021/05/18 16:16:05;;;;;;;;;;;;;;;21.86;44.47;99924.91;5018264;28;835;-59
2021/05/18 16:18:31;;;;;;;;;;;;;;;22.28;43.36;99918.72;5020283;28;1910;-54
2021/05/18 16:20:56;;;;;;;;;;;;;;;22.50;42.74;99914.88;5019561;28;836;-57
2021/05/18 16:23:22;;;;;;;;;;;;;;;22.24;43.50;99934.38;5019117;28;952;-59
2021/05/18 16:25:47;;;;;;;;;;;;;;;22.21;43.34;99928.34;5020223;28;776;-57
2021/05/18 16:28:13;;;;;;;;;;;;;;;21.85;43.89;99929.63;5050284;28;1011;-55
2021/05/18 16:30:38;;;;;;;;;;;;;;;21.81;44.21;99917.59;5040194;28;787;-55
2021/05/18 16:33:04;;;;;;;;;;;;;;;22.33;42.96;99921.28;5039802;28;756;-54
2021/05/18 16:35:29;;;;;;;;;;;;;;;22.41;42.68;99920.44;5040550;28;796;-58
2021/05/18 16:37:55;;;;;;;;;;;;;;;22.20;43.17;99923.13;5040386;28;1980;-58
2021/05/18 16:40:20;;;;;;;;;;;;;;;22.19;42.95;99932.59;5059386;28;823;-57
2021/05/18 16:42:46;;;;;;;;;;;;;;;21.52;44.59;99932.94;5059518;28;1010;-58
2021/05/18 16:45:11;;;;;;;;;;;;;;;21.93;44.02;99938.22;5060033;28;819;-51
2021/05/18 16:47:37;;;;;;;;;;;;;;;22.01;43.66;99937.41;5059393;28;815;-54
2021/05/18 16:50:04;;;;;;;;;;;;;;;22.43;42.68;99945.03;5059902;28;768;-55
2021/05/18 16:52:29;;;;;;;;;;;;;;;22.34;42.83;99951.47;5059852;28;1039;-57
2021/05/18 16:54:55;;;;;;;;;;;;;;;22.26;43.09;99940.38;5041331;28;794;-60
2021/05/18 16:57:21;;;;;;;;;;;;;;;21.79;43.99;99955.03;5059076;28;954;-59
2021/05/18 16:59:46;;;;;;;;;;;;;;;21.89;44.10;99951.91;5059678;28;1971;-59
2021/05/18 17:02:11;;;;;;;;;;;;;;;22.30;43.03;99952.41;5059644;28;791;-56
2021/05/18 17:04:37;;;;;;;;;;;;;;;22.50;42.46;99953.66;5059253;28;844;-58
2021/05/18 17:07:03;;;;;;;;;;;;;;;21.99;43.61;99947.97;5059577;28;830;-57
2021/05/18 17:09:29;;;;;;;;;;;;;;;21.96;43.82;99951.41;5059635;28;772;-58
2021/05/18 17:11:55;;;;;;;;;;;;;;;21.66;44.26;99945.78;5058586;28;986;-56
2021/05/18 17:14:22;;;;;;;;;;;;;;;21.96;43.75;99941.13;5059432;28;891;-59
2021/05/18 17:16:47;;;;;;;;;;;;;;;22.31;43.16;99941.00;5059256;28;824;-58
2021/05/18 17:19:13;;;;;;;;;;;;;;;22.49;42.60;99947.31;5059053;28;1909;-56
2021/05/18 17:21:38;;;;;;;;;;;;;;;22.24;42.99;99948.22;5059516;28;1053;-56
2021/05/18 17:24:04;;;;;;;;;;;;;;;22.09;43.51;99946.78;5051407;28;1139;-52
2021/05/18 17:26:29;;;;;;;;;;;;;;;21.58;44.55;99949.38;5020387;28;1099;-58
2021/05/18 17:28:55;;;;;;;;;;;;;;;21.91;44.00;99954.34;5020978;28;854;-57
2021/05/18 17:31:20;;;;;;;;;;;;;;;22.38;42.90;99951.59;5038847;28;769;-55
2021/05/18 17:33:46;;;;;;;;;;;;;;;22.55;42.35;99953.47;5038897;28;808;-58
2021/05/18 17:36:11;;;;;;;;;;;;;;;22.06;43.35;99951.03;5038030;28;1104;-52
2021/05/18 17:38:37;;;;;;;;;;;;;;;21.91;43.76;99954.34;5038502;28;1987;-57
2021/05/18 17:41:03;;;;;;;;;;;;;;;21.48;44.41;99959.59;5038662;28;804;-53
2021/05/18 17:43:29;;;;;;;;;;;;;;;21.76;44.16;99956.50;5038566;28;911;-49
2021/05/18 17:45:54;;;;;;;;;;;;;;;22.15;43.28;99954.59;5037732;28;816;-57
2021/05/18 17:48:20;;;;;;;;;;;;;;;22.41;42.39;99959.22;5038882;28;760;-55
2021/05/18 17:50:45;;;;;;;;;;;;;;;22.43;42.59;99969.97;5038596;28;788;-57
2021/05/18 17:53:11;;;;;;;;;;;;;;;22.45;42.53;99974.03;5038681;28;756;-54
2021/05/18 17:55:36;;;;;;;;;;;;;;;22.55;42.33;99973.69;5038467;28;848;-53
2021/05/18 17:58:02;;;;;;;;;;;;;;;21.98;43.72;99979.56;5037817;28;1910;-55
2021/05/18 18:00:27;;;;;;;;;;;;;;;21.92;43.78;99984.44;5038487;28;780;-49
2021/05/18 18:02:53;;;;;;;;;;;;;;;21.57;44.49;99983.72;5038277;28;816;-56
2021/05/18 18:05:18;;;;;;;;;;;;;;;21.88;43.98;99998.16;5036932;28;891;-53
2021/05/18 18:07:44;;;;;;;;;;;;;;;22.20;43.08;99995.13;5039045;28;812;-53